Alpinopolis, Brazil
Current Conditions -  °F | °C
As of 8:00 AM on Thursday 23 Oct 2014 (Local Time) from SBRP Reporting Station
Clear Clear  
Wind Chill: 72°   Ceiling: Unl
Heat Index: 72°   Visibility: 6mi
Dew Point: 59°   Wind: 7mph
Humidity: 64%   Direction: 120°ESE
Pressure: 30.09"   Gusts: NA
Location:  20.86°S, 46.4°W
Report Text: SBRP 231000Z 12006KT CAVOK 22/15 Q1019
Loading
Personal Weather Stations






























Interactive Weather Map
Tropical Storm Tracking
New forecast layout! Learn more

10-Day Weather Forecast

Advertisements
Track Severe Weather on mobile